Aviation Digital Data Service (ADDS)

Output produced by METARs form (1311 UTC 15 November 2018)
found at http://www.aviationweather.gov/metar/data/
 
TAF SABE 151100Z 1512/1612 29010KT CAVOK TX28/1518Z TN14/1608Z 
     BECMG 1519/1521 20005KT 
     BECMG 1601/1603 14015G25KT SCT015 BKN040 
     BECMG 1603/1605 7000 RADZ BKN015 OVC040
       
TAF SACO 151100Z 1512/1612 36010KT CAVOK TX31/1518Z TN13/1610Z 
     BECMG 1514/1517 02020KT 9999 FEW030 
     BECMG 1604/1607 18010KT 9999 SCT025
       
TAF SARI 151100Z 1512/1612 VRB03KT CAVOK TX30/1518Z TN17/1609Z
       
TAF SAVC 151100Z 1512/1612 27015G30KT CAVOK TX20/1521Z TN08/1608Z 
     BECMG 1513/1515 25010KT 
     BECMG 1602/1604 28020G30KT
       
TAF SAME 151100Z 1512/1612 14010KT 9999 FEW040 TX30/1520Z TN12/1610Z
       
TAF SARF 151100Z 1512/1612 VRB03KT CAVOK TX30/1518Z TN17/1609Z
       
TAF SASJ 151100Z 1512/1612 32005KT CAVOK TX29/1518Z TN16/1610Z 
     BECMG 1514/1517 07015KT 9999 SCT030
       
TAF SASA 151100Z 1512/1612 VRB03KT CAVOK TX27/1519Z TN13/1610Z 
     BECMG 1514/1517 07015KT 9999 SCT020 FEW030TCU 
     BECMG 1602/1605 32005KT 9999 SCT025
       
TAF SASA 151100Z 1512/1612 VRB03KT CAVOK TX27/1519Z TN13/1610Z 
     BECMG 1514/1517 07015KT 9999 SCT020 FEW030TCU 
     BECMG 1602/1605 32005KT 9999 SCT025
       
TAF SAZM 151100Z 1512/1612 25015G25KT CAVOK TX20/1518Z TN07/1610Z 
     BECMG 1515/1518 23020G30KT 
     TEMPO 1521/1600 23015KT 
     BECMG 1603/1606 VRB03KT 7000 NSC
       
TAF SAEZ 151100Z 1512/1612 29010KT CAVOK TX27/1519Z TN09/1610Z 
     BECMG 1514/1515 23010KT 
     BECMG 1517/1519 20010KT 
     BECMG 1602/1604 14015KT 6000 RA BKN010 OVC040 
     TEMPO 1602/1605 4000 TSRA FEW035CB 
     BECMG 1606/1608 09015KT 8000 RA OVC008 
       
TAF SARP 151100Z 1512/1612 VRB03KT CAVOK TX30/1518Z TN17/1609Z
       
TAF SAZN 151100Z 1512/1612 23010KT CAVOK TX22/1518Z TN12/1609Z 
     BECMG 1513/1515 23015KT 
     TEMPO 1513/1519 23015G30KT 
     BECMG 1521/1523 VRB03KT
       
TAF SARE 151100Z 1512/1612 VRB03KT CAVOK TX30/1518Z TN17/1609Z
       
TAF SAWG 151100Z 1512/1612 25030G45KT CAVOK TX13/1518Z TN06/1606Z 
     BECMG 1524/1602 29020KT
       
TAF SAWE 151100Z 1512/1612 27020G30KT CAVOK TX13/1518Z TN03/1610Z 
     BECMG 1514/1516 27025G45KT BKN030 BKN100 
     BECMG 1601/1603 29015KT CAVOK
       
TAF SAAR 151100Z 1512/1612 31005KT CAVOK TX32/1519Z TN16/1608Z 
     BECMG 1513/1515 34010KT 
     BECMG 1519/1522 02010KT 
     BECMG 1601/1603 14015G25KT TAF SAZN 151100Z 1512/1612 23010KT CAVOK
TX22/1518Z TN12/1609Z 
     BECMG 1513/1515 23015KT 
     TEMPO 1513/1519 23015G30KT 
     BECMG 1521/1523 VRB03KT
       
TAF SASA 151100Z 1512/1612 VRB03KT CAVOK TX27/1519Z TN13/1610Z 
     BECMG 1514/1517 07015KT 9999 SCT020 FEW030TCU 
     BECMG 1602/1605 32005KT 9999 SCT025
       
TAF SASA 151100Z 1512/1612 VRB03KT CAVOK TX27/1519Z TN13/1610Z 
     BECMG 1514/1517 07015KT 9999 SCT020 FEW030TCU 
     BECMG 1602/1605 32005KT 9999 SCT025
       
TAF SAZS 151100Z 1512/1612 29010G20KT CAVOK TX15/1519Z TN04/1609Z 
     BECMG 1513/1515 29015KT 
     BECMG 1521/1523 VRB03KT
       
TAF SADF 150500Z 1506/1606 27010KT CAVOK TX29/1518Z TN16/1606Z 
     BECMG 1517/1519 20005KT 
     BECMG 1601/1603 14020KT SCT015 BKN040
       
TAF SANT 151100Z 1512/1612 36010KT CAVOK TX32/1519Z TN17/1610Z
       
TAF SAWH 151100Z 1512/1612 25020G30KT 9999 SCT035 BKN045 TX10/1518Z TN03/1610Z 
     BECMG 1520/1522 25020G30KT RA BKN030 BKN070 
     BECMG 1603/1605 29010KT CAVOK 
     BECMG 1611/1612 25020G30KT